Ceylon, Indiana
Current Conditions -  °F | °C
As of 1:54 AM on Thursday 18 Dec 2014 (Local Time) from KFWA Reporting Station
Overcast Overcast  
Wind Chill: 19°   Ceiling: 2400
Heat Index: 27°   Visibility: 10mi
Dew Point: 21°   Wind: 8mph
Humidity: 78%   Direction: 290°WNW
Pressure: 30.25"   Gusts: NA
Location:  40.6087°N, 84.98°W
Report Text: KFWA 180654Z 29007KT 10SM OVC024 M03/M06 A3025 RMK AO2 SLP255 T10281061
Loading
Personal Weather Stations






























Interactive Weather Map New forecast layout! Learn more

10-Day Weather Forecast

Advertisements
Track Severe Weather on mobile